createdAt,value
2018-07-23T00:01:44.169Z,94149.91
2018-07-23T00:04:13.857Z,94142.50
2018-07-23T00:06:43.770Z,94140.88
2018-07-23T00:09:13.358Z,94137.73
2018-07-23T00:11:42.928Z,94129.74
2018-07-23T00:14:12.649Z,94131.91
2018-07-23T00:16:42.571Z,94137.21
2018-07-23T00:19:12.440Z,94132.92
2018-07-23T00:21:42.251Z,94124.89
2018-07-23T00:24:12.373Z,94132.39
2018-07-23T00:26:42.031Z,94136.97
2018-07-23T00:29:12.059Z,94120.84
2018-07-23T00:31:41.666Z,94122.50
2018-07-23T00:34:11.330Z,94127.86
2018-07-23T00:36:40.986Z,94129.34
2018-07-23T00:39:11.062Z,94131.14
2018-07-23T00:41:40.862Z,94131.06
2018-07-23T00:44:10.455Z,94128.42
2018-07-23T00:46:39.986Z,94126.84
2018-07-23T00:49:09.490Z,94127.61
2018-07-23T00:51:39.420Z,94115.20
2018-07-23T00:54:09.259Z,94116.59
2018-07-23T00:56:39.127Z,94121.59
2018-07-23T00:59:08.830Z,94119.18
2018-07-23T01:01:38.602Z,94124.20
2018-07-23T01:04:08.701Z,94127.37
2018-07-23T01:06:38.603Z,94126.20
2018-07-23T01:09:10.130Z,94119.81
2018-07-23T01:11:39.946Z,94124.64
2018-07-23T01:14:09.859Z,94126.70
2018-07-23T01:16:39.810Z,94131.69
2018-07-23T01:19:09.481Z,94135.75
2018-07-23T01:21:39.238Z,94131.41
2018-07-23T01:24:08.768Z,94128.00
2018-07-23T01:26:38.518Z,94128.17
2018-07-23T01:29:08.228Z,94121.79
2018-07-23T01:31:37.952Z,94120.57
2018-07-23T01:34:07.726Z,94117.12
2018-07-23T01:36:37.365Z,94122.47
2018-07-23T01:39:09.082Z,94128.49
2018-07-23T01:41:38.802Z,94124.52
2018-07-23T01:44:08.648Z,94124.13
2018-07-23T01:46:38.277Z,94126.95
2018-07-23T01:49:08.174Z,94122.33
2018-07-23T01:51:37.878Z,94127.08
2018-07-23T01:54:07.466Z,94127.77
2018-07-23T01:56:37.135Z,94126.09
2018-07-23T01:59:06.873Z,94122.66
2018-07-23T02:01:36.750Z,94113.25
2018-07-23T02:04:06.955Z,94117.30
2018-07-23T02:06:36.725Z,94119.98
2018-07-23T02:09:09.335Z,94129.58
2018-07-23T02:11:39.013Z,94127.95
2018-07-23T02:14:09.384Z,94131.87
2018-07-23T02:16:38.862Z,94143.42
2018-07-23T02:19:08.643Z,94139.98
2018-07-23T02:21:38.649Z,94144.39
2018-07-23T02:24:08.570Z,94137.48
2018-07-23T02:26:38.203Z,94139.67
2018-07-23T02:29:07.664Z,94142.52
2018-07-23T02:31:37.230Z,94140.45
2018-07-23T02:34:06.911Z,94133.19
2018-07-23T02:36:36.653Z,94131.94
2018-07-23T02:39:09.311Z,94136.55
2018-07-23T02:41:39.040Z,94132.61
2018-07-23T02:44:08.659Z,94135.37
2018-07-23T02:46:38.637Z,94139.06
2018-07-23T02:49:08.729Z,94144.48
2018-07-23T02:51:38.558Z,94137.06
2018-07-23T02:54:08.742Z,94129.31
2018-07-23T02:56:38.659Z,94135.74
2018-07-23T02:59:08.358Z,94134.66
2018-07-23T03:01:37.918Z,94136.77
2018-07-23T03:04:07.741Z,94121.70
2018-07-23T03:06:37.555Z,94132.75
2018-07-23T03:09:08.166Z,94128.62
2018-07-23T03:11:37.912Z,94128.01
2018-07-23T03:14:07.662Z,94129.03
2018-07-23T03:16:37.523Z,94131.97
2018-07-23T03:19:07.146Z,94125.77
2018-07-23T03:21:37.218Z,94127.58
2018-07-23T03:24:06.760Z,94122.77
2018-07-23T03:26:36.593Z,94119.39
2018-07-23T03:29:06.612Z,94111.89
2018-07-23T03:31:36.076Z,94116.39
2018-07-23T03:34:05.718Z,94113.75
2018-07-23T03:36:35.187Z,94112.52
2018-07-23T03:39:06.608Z,94116.95
2018-07-23T03:41:36.271Z,94115.58
2018-07-23T03:44:05.989Z,94115.75
2018-07-23T03:46:35.499Z,94113.72
2018-07-23T03:49:05.132Z,94118.63
2018-07-23T03:51:34.750Z,94116.53
2018-07-23T03:54:04.355Z,94116.28
2018-07-23T03:56:34.022Z,94119.17
2018-07-23T03:59:03.682Z,94108.56
2018-07-23T04:01:33.539Z,94108.78
2018-07-23T04:04:03.047Z,94110.39
2018-07-23T04:06:32.500Z,94115.67
2018-07-23T04:09:02.119Z,94117.13
2018-07-23T04:11:31.741Z,94122.13
2018-07-23T04:14:01.276Z,94123.83
2018-07-23T04:16:30.861Z,94124.79
2018-07-23T04:19:00.574Z,94120.83
2018-07-23T04:21:30.202Z,94125.79
2018-07-23T04:23:59.730Z,94133.09
2018-07-23T04:26:29.322Z,94120.22
2018-07-23T04:28:59.047Z,94116.86
2018-07-23T04:31:28.554Z,94119.06
2018-07-23T04:33:58.107Z,94116.72
2018-07-23T04:36:27.654Z,94113.06
2018-07-23T04:38:57.235Z,94114.51
2018-07-23T04:41:26.750Z,94121.38
2018-07-23T04:43:56.598Z,94115.98
2018-07-23T04:46:26.294Z,94106.20
2018-07-23T04:48:55.877Z,94109.80
2018-07-23T04:51:25.461Z,94105.84
2018-07-23T04:53:55.233Z,94091.25
2018-07-23T04:56:24.906Z,94090.04
2018-07-23T04:58:54.589Z,94096.38
2018-07-23T05:01:24.099Z,94090.27
2018-07-23T05:03:53.671Z,94082.11
2018-07-23T05:06:23.449Z,94082.70
2018-07-23T05:08:52.942Z,94077.43
2018-07-23T05:11:22.434Z,94083.77
2018-07-23T05:13:51.914Z,94080.95
2018-07-23T05:16:21.576Z,94075.19
2018-07-23T05:18:51.203Z,94074.97
2018-07-23T05:21:21.095Z,94076.16
2018-07-23T05:23:50.801Z,94072.00
2018-07-23T05:26:20.669Z,94082.77
2018-07-23T05:28:50.471Z,94086.31
2018-07-23T05:31:20.413Z,94092.69
2018-07-23T05:33:50.175Z,94096.34
2018-07-23T05:36:19.903Z,94095.45
2018-07-23T05:38:49.821Z,94093.92
2018-07-23T05:41:19.402Z,94097.84
2018-07-23T05:43:49.045Z,94089.45
2018-07-23T05:46:18.671Z,94077.88
2018-07-23T05:48:48.417Z,94082.98
2018-07-23T05:51:18.167Z,94081.88
2018-07-23T05:53:48.084Z,94078.56
2018-07-23T05:56:17.889Z,94075.28
2018-07-23T05:58:47.932Z,94083.14
2018-07-23T06:01:17.859Z,94080.16
2018-07-23T06:03:47.378Z,94077.50
2018-07-23T06:06:17.070Z,94075.83
2018-07-23T06:08:46.940Z,94075.55
2018-07-23T06:11:16.884Z,94067.98
2018-07-23T06:13:46.829Z,94090.84
2018-07-23T06:16:16.426Z,94087.76
2018-07-23T06:18:46.107Z,94083.87
2018-07-23T06:21:15.678Z,94084.74
2018-07-23T06:23:45.507Z,94082.18
2018-07-23T06:26:15.601Z,94077.08
2018-07-23T06:28:45.255Z,94074.42
2018-07-23T06:31:14.995Z,94076.20
2018-07-23T06:33:44.863Z,94080.42
2018-07-23T06:36:14.843Z,94077.95
2018-07-23T06:38:44.637Z,94078.19
2018-07-23T06:41:14.287Z,94076.43
2018-07-23T06:43:44.404Z,94078.22
2018-07-23T06:46:14.170Z,94077.95
2018-07-23T06:48:43.738Z,94075.19
2018-07-23T06:51:13.258Z,94065.54
2018-07-23T06:53:42.792Z,94068.61
2018-07-23T06:56:12.394Z,94066.40
2018-07-23T06:58:42.036Z,94065.53
2018-07-23T07:01:11.538Z,94073.62
2018-07-23T07:03:41.329Z,94067.05
2018-07-23T07:06:11.310Z,94067.84
2018-07-23T07:08:41.379Z,94067.51
2018-07-23T07:11:11.147Z,94062.05
2018-07-23T07:13:40.817Z,94053.93
2018-07-23T07:16:10.669Z,94066.12
2018-07-23T07:18:40.399Z,94074.16
2018-07-23T07:21:10.021Z,94071.90
2018-07-23T07:23:39.770Z,94063.92
2018-07-23T07:26:09.288Z,94065.95
2018-07-23T07:28:38.807Z,94060.05
2018-07-23T07:31:08.354Z,94064.44
2018-07-23T07:33:38.186Z,94045.38
2018-07-23T07:36:07.839Z,94048.92
2018-07-23T07:38:37.534Z,94047.33
2018-07-23T07:41:07.954Z,94042.30
2018-07-23T07:43:38.079Z,94045.38
2018-07-23T07:46:07.647Z,94048.13
2018-07-23T07:48:37.450Z,94040.95
2018-07-23T07:51:07.397Z,94033.52
2018-07-23T07:53:37.537Z,94027.10
2018-07-23T07:56:07.250Z,94028.05
2018-07-23T07:58:36.811Z,94030.55
2018-07-23T08:01:06.314Z,94024.07
2018-07-23T08:03:36.359Z,94022.70
2018-07-23T08:06:06.039Z,94020.61
2018-07-23T08:08:35.830Z,94024.82
2018-07-23T08:11:05.609Z,94015.42
2018-07-23T08:13:35.581Z,94012.67
2018-07-23T08:16:05.526Z,94013.23
2018-07-23T08:18:35.662Z,94007.27
2018-07-23T08:21:05.394Z,94008.20
2018-07-23T08:23:35.247Z,93996.13
2018-07-23T08:26:05.425Z,94009.66
2018-07-23T08:28:35.545Z,94009.33
2018-07-23T08:31:05.136Z,94020.79
2018-07-23T08:33:34.766Z,94006.22
2018-07-23T08:36:04.375Z,94001.87
2018-07-23T08:38:34.282Z,94005.08
2018-07-23T08:41:04.085Z,93998.58
2018-07-23T08:43:33.921Z,93999.81
2018-07-23T08:46:03.573Z,93994.13
2018-07-23T08:48:33.478Z,93998.14
2018-07-23T08:51:03.452Z,93998.67
2018-07-23T08:53:33.160Z,93992.27
2018-07-23T08:56:02.789Z,93982.06
2018-07-23T08:58:32.503Z,93980.80
2018-07-23T09:01:02.254Z,93981.77
2018-07-23T09:03:31.910Z,93978.33
2018-07-23T09:06:01.543Z,93980.61
2018-07-23T09:08:31.120Z,93967.37
2018-07-23T09:11:01.137Z,93967.37
2018-07-23T09:13:30.994Z,93966.78
2018-07-23T09:16:00.952Z,93962.82
2018-07-23T09:18:30.639Z,93948.77
2018-07-23T09:21:00.711Z,93943.34
2018-07-23T09:23:30.682Z,93929.56
2018-07-23T09:26:00.397Z,93944.55
2018-07-23T09:28:30.328Z,93948.48
2018-07-23T09:31:00.233Z,93938.81
2018-07-23T09:33:29.967Z,93937.44
2018-07-23T09:35:59.735Z,93931.30
2018-07-23T09:38:29.385Z,93924.87
2018-07-23T09:40:59.090Z,93919.92
2018-07-23T09:43:28.764Z,93912.14
2018-07-23T09:45:58.410Z,93916.66
2018-07-23T09:48:28.032Z,93926.74
2018-07-23T09:50:58.107Z,93927.53
2018-07-23T09:53:27.800Z,93917.34
2018-07-23T09:55:57.750Z,93923.94
2018-07-23T09:58:27.666Z,93928.45
2018-07-23T10:01:02.248Z,93923.93
2018-07-23T10:03:31.939Z,93935.22
2018-07-23T10:06:01.510Z,93929.48
2018-07-23T10:08:31.340Z,93932.31
2018-07-23T10:11:01.377Z,93936.27
2018-07-23T10:13:31.336Z,93936.05
2018-07-23T10:16:00.796Z,93951.81
2018-07-23T10:18:30.702Z,93944.97
2018-07-23T10:21:00.315Z,93938.45
2018-07-23T10:23:30.492Z,93938.80
2018-07-23T10:26:00.103Z,93936.05
2018-07-23T10:28:29.909Z,93933.91
2018-07-23T10:30:59.645Z,93939.75
2018-07-23T10:33:29.560Z,93938.69
2018-07-23T10:35:59.257Z,93920.05
2018-07-23T10:38:30.076Z,93916.02
2018-07-23T10:40:59.831Z,93924.95
2018-07-23T10:43:29.331Z,93938.71
2018-07-23T10:45:59.029Z,93941.74
2018-07-23T10:48:28.565Z,93943.85
2018-07-23T10:50:58.345Z,93931.25
2018-07-23T10:53:28.282Z,93931.80
2018-07-23T10:55:57.924Z,93923.48
2018-07-23T10:58:27.708Z,93914.31
2018-07-23T11:00:57.687Z,93903.48
2018-07-23T11:03:27.419Z,93904.58
2018-07-23T11:05:57.110Z,93890.66
2018-07-23T11:08:26.866Z,93896.27
2018-07-23T11:10:56.425Z,93875.86
2018-07-23T11:13:26.315Z,93868.80
2018-07-23T11:15:56.158Z,93857.03
2018-07-23T11:18:25.803Z,93849.23
2018-07-23T11:20:55.410Z,93849.94
2018-07-23T11:23:25.107Z,93845.91
2018-07-23T11:25:55.116Z,93834.23
2018-07-23T11:28:24.955Z,93825.64
2018-07-23T11:30:54.670Z,93821.67
2018-07-23T11:33:24.648Z,93814.72
2018-07-23T11:35:54.749Z,93817.77
2018-07-23T11:38:24.552Z,93817.63
2018-07-23T11:40:54.222Z,93795.77
2018-07-23T11:43:24.007Z,93809.63
2018-07-23T11:45:54.159Z,93808.85
2018-07-23T11:48:24.003Z,93811.20
2018-07-23T11:50:53.660Z,93835.40
2018-07-23T11:53:23.307Z,93826.84
2018-07-23T11:55:53.663Z,93821.00
2018-07-23T11:58:23.316Z,93818.17
2018-07-23T12:00:53.186Z,93817.88
2018-07-23T12:03:22.920Z,93814.22
2018-07-23T12:05:52.702Z,93813.16
2018-07-23T12:08:22.310Z,93812.17
2018-07-23T12:10:51.794Z,93814.60
2018-07-23T12:13:21.388Z,93817.48
2018-07-23T12:15:51.300Z,93822.89
2018-07-23T12:18:21.290Z,93822.47
2018-07-23T12:20:51.140Z,93827.53
2018-07-23T12:23:20.881Z,93830.58
2018-07-23T12:25:50.386Z,93834.66
2018-07-23T12:28:19.882Z,93830.52
2018-07-23T12:30:49.592Z,93835.18
2018-07-23T12:33:19.287Z,93832.45
2018-07-23T12:35:48.929Z,93825.70
2018-07-23T12:38:18.738Z,93828.64
2018-07-23T12:40:48.574Z,93820.38
2018-07-23T12:43:18.526Z,93814.87
2018-07-23T12:45:48.276Z,93817.25
2018-07-23T12:48:18.468Z,93805.56
2018-07-23T12:50:47.995Z,93802.44
2018-07-23T12:53:17.686Z,93806.70
2018-07-23T12:55:47.466Z,93809.05
2018-07-23T12:58:17.074Z,93808.92
2018-07-23T13:00:46.579Z,93812.33
2018-07-23T13:03:16.149Z,93817.74
2018-07-23T13:05:45.798Z,93822.70
2018-07-23T13:08:15.769Z,93811.70
2018-07-23T13:10:45.543Z,93809.33
2018-07-23T13:13:15.543Z,93814.26
2018-07-23T13:15:45.176Z,93823.09
2018-07-23T13:18:15.727Z,93860.31
2018-07-23T13:20:45.678Z,93848.45
2018-07-23T13:23:15.519Z,93849.55
2018-07-23T13:25:45.258Z,93842.56
2018-07-23T13:28:15.178Z,93838.31
2018-07-23T13:30:46.303Z,93833.11
2018-07-23T13:33:16.247Z,93833.44
2018-07-23T13:35:46.038Z,93832.98
2018-07-23T13:38:16.168Z,93821.48
2018-07-23T13:40:45.791Z,93829.98
2018-07-23T13:43:15.606Z,93827.19
2018-07-23T13:45:45.267Z,93842.67
2018-07-23T13:48:14.966Z,93834.66
2018-07-23T13:50:45.267Z,93853.11
2018-07-23T13:53:15.223Z,93841.98
2018-07-23T13:55:44.996Z,93823.32
2018-07-23T13:58:14.554Z,93826.48
2018-07-23T14:00:44.092Z,93822.02
2018-07-23T14:03:13.648Z,93839.55
2018-07-23T14:05:43.214Z,93838.74
2018-07-23T14:08:12.898Z,93847.87
2018-07-23T14:10:42.610Z,93851.45
2018-07-23T14:13:12.289Z,93856.75
2018-07-23T14:15:42.030Z,93856.96
2018-07-23T14:18:11.813Z,93856.71
2018-07-23T14:20:41.671Z,93860.46
2018-07-23T14:23:11.475Z,93861.57
2018-07-23T14:25:41.077Z,93857.74
2018-07-23T14:28:10.798Z,93867.55
2018-07-23T14:30:40.610Z,93890.50
2018-07-23T14:33:10.202Z,93898.02
2018-07-23T14:35:39.922Z,93902.67
2018-07-23T14:38:10.028Z,93891.46
2018-07-23T14:40:40.032Z,93890.23
2018-07-23T14:43:09.648Z,93882.39
2018-07-23T14:45:39.312Z,93883.48
2018-07-23T14:48:09.400Z,93886.70
2018-07-23T14:50:39.492Z,93869.19
2018-07-23T14:53:09.458Z,93864.18
2018-07-23T14:55:39.284Z,93863.61
2018-07-23T14:58:09.026Z,93862.36
2018-07-23T15:00:38.452Z,93848.52
2018-07-23T15:03:08.090Z,93837.73
2018-07-23T15:05:37.630Z,93827.75
2018-07-23T15:08:07.302Z,93819.58
2018-07-23T15:10:37.327Z,93828.97
2018-07-23T15:13:07.185Z,93837.81
2018-07-23T15:15:36.847Z,93843.00
2018-07-23T15:18:06.503Z,93845.88
2018-07-23T15:20:36.371Z,93834.85
2018-07-23T15:23:06.251Z,93835.59
2018-07-23T15:25:35.968Z,93835.66
2018-07-23T15:28:05.711Z,93837.89
2018-07-23T15:30:35.535Z,93833.30
2018-07-23T15:33:05.172Z,93836.56
2018-07-23T15:35:34.801Z,93848.22
2018-07-23T15:38:04.570Z,93842.06
2018-07-23T15:40:34.090Z,93849.05
2018-07-23T15:43:03.883Z,93846.36
2018-07-23T15:45:33.828Z,93837.42
2018-07-23T15:48:03.694Z,93840.17
2018-07-23T15:50:33.526Z,93844.78
2018-07-23T15:53:03.194Z,93831.62
2018-07-23T15:55:34.227Z,93852.84
2018-07-23T15:58:04.346Z,93839.25
2018-07-23T16:00:33.977Z,93844.26
2018-07-23T16:03:03.762Z,93838.47
2018-07-23T16:05:33.689Z,93828.42
2018-07-23T16:08:03.502Z,93825.88
2018-07-23T16:10:33.610Z,93825.83
2018-07-23T16:13:03.576Z,93829.91
2018-07-23T16:15:33.439Z,93829.13
2018-07-23T16:18:03.092Z,93837.11
2018-07-23T16:20:33.160Z,93843.63
2018-07-23T16:23:03.086Z,93834.54
2018-07-23T16:25:32.912Z,93837.96
2018-07-23T16:28:02.655Z,93847.39
2018-07-23T16:30:32.297Z,93852.02
2018-07-23T16:33:01.907Z,93850.27
2018-07-23T16:35:31.463Z,93848.86
2018-07-23T16:38:01.375Z,93852.39
2018-07-23T16:40:31.215Z,93853.44
2018-07-23T16:43:00.878Z,93857.28
2018-07-23T16:45:37.223Z,93860.08
2018-07-23T16:48:07.401Z,93851.21
2018-07-23T16:50:37.283Z,93853.95
2018-07-23T16:53:08.193Z,93849.23
2018-07-23T16:55:37.854Z,93845.98
2018-07-23T16:58:07.968Z,93844.64
2018-07-23T17:00:37.561Z,93845.27
2018-07-23T17:03:07.312Z,93844.30
2018-07-23T17:05:37.497Z,93844.69
2018-07-23T17:08:07.160Z,93856.08
2018-07-23T17:10:37.010Z,93851.45
2018-07-23T17:13:06.795Z,93858.30
2018-07-23T17:15:37.024Z,93854.11
2018-07-23T17:18:07.223Z,93859.17
2018-07-23T17:20:36.754Z,93857.75
2018-07-23T17:23:06.731Z,93869.72
2018-07-23T17:25:36.562Z,93871.92
2018-07-23T17:28:06.578Z,93880.87
2018-07-23T17:30:36.243Z,93883.77
2018-07-23T17:33:06.007Z,93890.03
2018-07-23T17:35:36.042Z,93887.23
2018-07-23T17:38:06.075Z,93888.61
2018-07-23T17:40:36.145Z,93894.71
2018-07-23T17:43:06.613Z,93901.19
2018-07-23T17:45:36.651Z,93920.70
2018-07-23T17:48:06.579Z,93918.54
2018-07-23T17:50:36.405Z,93916.80
2018-07-23T17:53:06.407Z,93910.64
2018-07-23T17:55:36.310Z,93916.18
2018-07-23T17:58:06.003Z,93908.74
2018-07-23T18:00:35.621Z,93908.11
2018-07-23T18:03:05.431Z,93915.69
2018-07-23T18:05:35.336Z,93920.50
2018-07-23T18:08:05.301Z,93931.67
2018-07-23T18:10:35.286Z,93950.67
2018-07-23T18:13:05.204Z,93958.45
2018-07-23T18:15:35.321Z,93971.13
2018-07-23T18:18:05.095Z,93964.31
2018-07-23T18:20:34.923Z,93963.63
2018-07-23T18:23:04.546Z,93960.29
2018-07-23T18:25:34.578Z,93964.47
2018-07-23T18:28:04.308Z,93968.13
2018-07-23T18:30:33.897Z,93972.90
2018-07-23T18:33:03.487Z,93970.68
2018-07-23T18:35:33.210Z,93969.65
2018-07-23T18:38:03.180Z,93976.93
2018-07-23T18:40:32.685Z,93974.23
2018-07-23T18:43:02.432Z,93977.84
2018-07-23T18:45:32.219Z,93985.42
2018-07-23T18:48:01.992Z,93981.78
2018-07-23T18:50:31.990Z,93983.72
2018-07-23T18:53:01.888Z,93983.16
2018-07-23T18:55:31.771Z,93982.19
2018-07-23T18:58:01.808Z,93985.74
2018-07-23T19:00:31.433Z,93983.31
2018-07-23T19:03:01.087Z,93980.81
2018-07-23T19:05:31.032Z,93974.36
2018-07-23T19:08:00.960Z,93975.07
2018-07-23T19:10:30.604Z,93983.75
2018-07-23T19:13:00.347Z,93979.68
2018-07-23T19:15:30.221Z,93982.81
2018-07-23T19:18:00.080Z,93991.80
2018-07-23T19:20:30.039Z,93987.36
2018-07-23T19:22:59.716Z,93988.09
2018-07-23T19:25:29.348Z,93991.83
2018-07-23T19:27:58.918Z,93991.20
2018-07-23T19:30:28.543Z,93984.77
2018-07-23T19:32:58.165Z,93975.85
2018-07-23T19:35:27.901Z,93969.05
2018-07-23T19:37:57.462Z,93961.89
2018-07-23T19:40:27.389Z,93962.56
2018-07-23T19:42:57.269Z,93969.49
2018-07-23T19:45:26.850Z,93964.63
2018-07-23T19:47:56.424Z,93969.95
2018-07-23T19:50:26.947Z,93967.29
2018-07-23T19:52:57.589Z,93965.97
2018-07-23T19:55:27.991Z,93970.42
2018-07-23T19:57:57.693Z,93968.20
2018-07-23T20:00:27.214Z,93959.06
2018-07-23T20:02:56.753Z,93963.03
2018-07-23T20:05:26.693Z,93967.45
2018-07-23T20:07:56.403Z,93956.03
2018-07-23T20:10:26.369Z,93952.78
2018-07-23T20:12:56.342Z,93947.98
2018-07-23T20:15:26.304Z,93942.27
2018-07-23T20:17:56.550Z,93945.49
2018-07-23T20:20:26.346Z,93943.75
2018-07-23T20:22:55.994Z,93938.89
2018-07-23T20:25:25.837Z,93944.11
2018-07-23T20:27:55.891Z,93945.87
2018-07-23T20:30:25.606Z,93947.52
2018-07-23T20:32:55.253Z,93943.55
2018-07-23T20:35:24.903Z,93942.05
2018-07-23T20:37:54.743Z,93943.00
2018-07-23T20:40:24.826Z,93945.84
2018-07-23T20:42:55.198Z,93938.98
2018-07-23T20:45:25.206Z,93938.77
2018-07-23T20:47:55.289Z,93937.25
2018-07-23T20:50:24.868Z,93928.17
2018-07-23T20:52:54.600Z,93926.80
2018-07-23T20:55:24.828Z,93924.45
2018-07-23T20:57:54.377Z,93929.52
2018-07-23T21:00:23.914Z,93923.44
2018-07-23T21:02:53.695Z,93929.44
2018-07-23T21:05:23.393Z,93919.09
2018-07-23T21:07:53.135Z,93924.91
2018-07-23T21:10:23.228Z,93923.67
2018-07-23T21:12:52.989Z,93932.81
2018-07-23T21:15:22.827Z,93934.20
2018-07-23T21:17:52.610Z,93932.90
2018-07-23T21:20:22.371Z,93925.48
2018-07-23T21:22:52.165Z,93926.64
2018-07-23T21:25:21.983Z,93927.59
2018-07-23T21:27:51.598Z,93921.61
2018-07-23T21:30:21.458Z,93929.98
2018-07-23T21:32:51.247Z,93930.88
2018-07-23T21:35:20.753Z,93931.86
2018-07-23T21:37:50.414Z,93931.48
2018-07-23T21:40:20.317Z,93931.45
2018-07-23T21:42:50.233Z,93938.25
2018-07-23T21:45:19.871Z,93934.05
2018-07-23T21:47:49.854Z,93922.84
2018-07-23T21:50:19.757Z,93914.77
2018-07-23T21:52:49.564Z,93918.44
2018-07-23T21:55:19.247Z,93921.24
2018-07-23T21:57:48.982Z,93924.91
2018-07-23T22:00:18.614Z,93927.50
2018-07-23T22:02:48.623Z,93923.78
2018-07-23T22:05:18.390Z,93935.41
2018-07-23T22:07:48.258Z,93931.48
2018-07-23T22:10:17.898Z,93923.33
2018-07-23T22:12:47.799Z,93922.39
2018-07-23T22:15:17.811Z,93922.92
2018-07-23T22:17:47.357Z,93930.14
2018-07-23T22:20:17.127Z,93928.98
2018-07-23T22:22:46.988Z,93922.68
2018-07-23T22:25:16.915Z,93923.14
2018-07-23T22:27:46.965Z,93927.17
2018-07-23T22:30:16.690Z,93928.83
2018-07-23T22:32:46.426Z,93926.77
2018-07-23T22:35:16.293Z,93927.41
2018-07-23T22:37:46.253Z,93932.44
2018-07-23T22:40:16.198Z,93926.68
2018-07-23T22:42:46.258Z,93921.89
2018-07-23T22:45:16.027Z,93924.00
2018-07-23T22:47:45.946Z,93925.19
2018-07-23T22:50:15.656Z,93922.62
2018-07-23T22:52:45.578Z,93918.13
2018-07-23T22:55:15.281Z,93921.61
2018-07-23T22:57:45.003Z,93912.51
2018-07-23T23:00:14.746Z,93912.27
2018-07-23T23:02:44.364Z,93903.23
2018-07-23T23:05:13.955Z,93899.98
2018-07-23T23:07:43.733Z,93903.52
2018-07-23T23:10:13.557Z,93896.27
2018-07-23T23:12:43.302Z,93908.80
2018-07-23T23:15:13.161Z,93900.11
2018-07-23T23:17:42.922Z,93905.91
2018-07-23T23:20:12.680Z,93895.48
2018-07-23T23:22:42.625Z,93903.19
2018-07-23T23:25:12.227Z,93903.77
2018-07-23T23:27:41.843Z,93912.45
2018-07-23T23:30:12.077Z,93914.36
2018-07-23T23:32:41.845Z,93905.34
2018-07-23T23:37:46.524Z,93893.56
2018-07-23T23:40:16.462Z,93896.55
2018-07-23T23:42:46.020Z,93889.02
2018-07-23T23:45:15.986Z,93897.18
2018-07-23T23:47:45.898Z,93891.94
2018-07-23T23:50:15.774Z,93895.77
2018-07-23T23:52:45.542Z,93897.21
2018-07-23T23:55:15.242Z,93903.48
2018-07-23T23:57:44.871Z,93893.92
